Time;durP1;ratioP1;P1;durP2;ratioP2;P2;SDS_P1;SDS_P2;PMS_P1;PMS_P2;Temp;Humidity;BMP_temperature;BMP_pressure;BME280_temperature;BME280_humidity;BME280_pressure;Samples;Min_cycle;Max_cycle;Signal;HPM_P1;HPM_P2
2022/08/27 00:00:48;;;;;;;9.50;6.60;;;;;;;23.07;50.18;100091.79;106373;1271;22535;-80
2022/08/27 00:03:16;;;;;;;7.30;6.60;;;;;;;23.06;50.06;100085.77;106514;1271;24213;-82
2022/08/27 00:05:44;;;;;;;9.30;6.50;;;;;;;23.04;50.01;100085.02;106452;1268;22596;-80
2022/08/27 00:08:12;;;;;;;9.60;6.80;;;;;;;23.01;50.31;100081.75;106414;1268;24208;-80
2022/08/27 00:10:40;;;;;;;7.60;6.80;;;;;;;22.98;50.49;100077.45;106652;1268;23188;-80
2022/08/27 00:13:07;;;;;;;11.50;7.00;;;;;;;22.94;50.55;100072.69;106321;1268;22624;-80
2022/08/27 00:15:34;;;;;;;9.10;6.90;;;;;;;22.91;50.74;100074.02;106622;1268;22561;-79
2022/08/27 00:18:01;;;;;;;11.90;7.50;;;;;;;22.87;50.67;100071.55;106402;1271;22483;-79
2022/08/27 00:20:28;;;;;;;8.70;7.10;;;;;;;22.84;50.94;100062.23;106492;1271;22586;-79
2022/08/27 00:22:55;;;;;;;12.80;6.90;;;;;;;22.81;51.04;100061.01;107030;1268;25360;-79
2022/08/27 00:25:22;;;;;;;8.80;7.20;;;;;;;22.76;51.20;100055.23;106735;1268;24071;-80
2022/08/27 00:27:50;;;;;;;9.70;6.80;;;;;;;22.75;51.38;100057.77;107118;1268;24252;-79
2022/08/27 00:30:20;;;;;;;7.80;7.00;;;;;;;22.70;51.62;100057.58;106109;1278;26673;-80
2022/08/27 00:32:47;;;;;;;11.00;7.10;;;;;;;22.67;51.78;100055.42;106260;1277;26758;-80
2022/08/27 00:35:15;;;;;;;8.60;7.50;;;;;;;22.63;51.85;100059.44;106100;1274;22842;-82
2022/08/27 00:37:43;;;;;;;8.50;7.00;;;;;;;22.59;51.99;100055.38;106061;1277;23454;-77
2022/08/27 00:40:15;;;;;;;7.80;7.00;;;;;;;22.57;52.14;100059.86;106012;1274;26101;-80
2022/08/27 00:42:44;;;;;;;13.80;8.10;;;;;;;22.52;52.47;100055.66;106158;1277;22592;-79
2022/08/27 00:45:20;;;;;;;10.00;6.70;;;;;;;22.48;52.29;100058.42;105837;1277;22603;-80
2022/08/27 00:47:55;;;;;;;;;;;;;;;22.45;52.63;100060.07;105891;1271;24265;-80
2022/08/27 00:50:44;;;;;;;11.40;7.60;;;;;;;22.43;52.79;100061.09;106499;1268;22608;-79
2022/08/27 00:53:15;;;;;;;10.00;7.60;;;;;;;22.41;53.08;100062.99;106478;1271;23900;-78
2022/08/27 00:55:46;;;;;;;8.10;7.00;;;;;;;22.41;52.98;100060.67;106847;1268;25243;-77
2022/08/27 00:58:27;;;;;;;10.60;7.40;;;;;;;22.36;53.13;100061.67;106868;1268;24194;-80
2022/08/27 01:00:55;;;;;;;9.20;7.60;;;;;;;22.33;53.42;100058.84;106761;1268;23313;-80
2022/08/27 01:03:24;;;;;;;9.40;8.00;;;;;;;22.33;53.30;100060.10;106124;1275;22534;-80
2022/08/27 01:05:53;;;;;;;10.90;7.60;;;;;;;22.32;53.61;100055.66;106030;1274;22597;-80
2022/08/27 01:08:24;;;;;;;8.90;7.70;;;;;;;22.31;53.78;100056.13;106129;1274;22580;-80
2022/08/27 01:10:53;;;;;;;10.80;7.50;;;;;;;22.27;53.92;100053.48;106127;1274;22721;-79
2022/08/27 01:13:23;;;;;;;8.60;7.20;;;;;;;22.25;53.99;100054.14;106118;1274;22710;-80
2022/08/27 01:16:16;;;;;;;9.60;7.00;;;;;;;22.22;54.33;100051.09;106094;1274;24368;-80
2022/08/27 01:18:43;;;;;;;9.70;7.80;;;;;;;22.18;54.42;100048.68;106072;1274;22642;-78
2022/08/27 01:21:16;;;;;;;13.50;8.50;;;;;;;22.12;54.36;100050.80;106077;1268;24217;-81
2022/08/27 01:23:55;;;;;;;11.60;7.30;;;;;;;22.09;54.81;100050.66;106530;1268;22692;-81
2022/08/27 01:26:23;;;;;;;8.90;7.20;;;;;;;22.03;54.85;100052.10;107099;1271;24252;-79
2022/08/27 01:28:51;;;;;;;10.70;7.50;;;;;;;21.97;55.33;100048.16;107389;1271;23831;-79
2022/08/27 01:31:19;;;;;;;10.70;8.20;;;;;;;21.93;55.30;100046.23;106923;1268;23059;-79
2022/08/27 01:34:01;;;;;;;10.50;8.60;;;;;;;21.91;55.43;100048.35;108193;1268;22569;-79
2022/08/27 01:36:28;;;;;;;8.90;8.00;;;;;;;21.88;55.72;100045.28;108254;1268;22631;-79
2022/08/27 01:38:55;;;;;;;13.20;7.60;;;;;;;21.89;55.98;100046.48;108232;1268;26776;-79
2022/08/27 01:41:24;;;;;;;14.00;8.30;;;;;;;21.88;56.05;100046.70;108137;1268;22473;-78
2022/08/27 01:43:53;;;;;;;9.70;7.80;;;;;;;21.87;56.06;100040.18;108005;1268;23923;-78
2022/08/27 01:46:26;;;;;;;10.50;7.60;;;;;;;21.85;56.36;100043.33;107793;1268;22617;-77
2022/08/27 01:48:54;;;;;;;13.10;8.30;;;;;;;21.82;56.55;100042.14;108590;1268;22535;-78
2022/08/27 01:51:21;;;;;;;10.30;8.10;;;;;;;21.76;56.83;100042.94;108786;1268;22523;-78
2022/08/27 01:53:49;;;;;;;10.60;8.50;;;;;;;21.72;56.81;100044.80;108857;1268;22526;-78
2022/08/27 01:56:17;;;;;;;12.60;8.80;;;;;;;21.70;57.12;100045.11;107585;1274;22874;-79
2022/08/27 01:58:44;;;;;;;10.20;8.20;;;;;;;21.67;57.15;100044.08;107176;1274;22694;-79
2022/08/27 02:01:15;;;;;;;12.10;8.60;;;;;;;21.62;57.33;100045.05;107633;1274;22714;-80
2022/08/27 02:03:43;;;;;;;12.20;8.60;;;;;;;21.58;57.46;100045.12;107004;1274;25383;-79
2022/08/27 02:06:11;;;;;;;12.50;9.20;;;;;;;21.54;57.60;100041.26;107122;1275;22592;-80
2022/08/27 02:08:39;;;;;;;12.60;8.60;;;;;;;21.50;57.82;100040.41;107691;1275;22658;-79
2022/08/27 02:11:07;;;;;;;13.00;9.20;;;;;;;21.46;57.89;100045.68;107000;1275;22488;-80
2022/08/27 02:13:35;;;;;;;11.20;8.70;;;;;;;21.41;58.17;100043.09;107193;1268;23114;-80
2022/08/27 02:16:02;;;;;;;12.50;9.00;;;;;;;21.39;58.26;100043.41;107831;1268;23284;-80
2022/08/27 02:18:29;;;;;;;14.50;8.70;;;;;;;21.34;58.42;100042.11;107171;1274;22730;-78
2022/08/27 02:20:56;;;;;;;11.00;9.30;;;;;;;21.28;58.49;100039.55;107227;1274;25502;-77
2022/08/27 02:23:23;;;;;;;11.20;9.00;;;;;;;21.24;58.73;100035.16;107102;1274;23589;-79
2022/08/27 02:25:50;;;;;;;11.40;9.80;;;;;;;21.23;58.95;100035.38;106953;1274;25621;-79
2022/08/27 02:28:18;;;;;;;17.00;10.40;;;;;;;21.21;58.93;100033.01;106933;1274;22554;-79
2022/08/27 02:30:45;;;;;;;11.60;8.60;;;;;;;21.17;59.13;100030.89;106898;1274;22727;-79
2022/08/27 02:33:12;;;;;;;11.40;8.80;;;;;;;21.11;59.05;100035.19;106671;1274;25327;-78
2022/08/27 02:35:42;;;;;;;13.00;9.30;;;;;;;21.09;59.29;100036.56;106032;1274;25386;-78
2022/08/27 02:38:11;;;;;;;10.90;8.50;;;;;;;21.09;59.28;100044.61;105999;1277;26498;-79
2022/08/27 02:40:39;;;;;;;11.90;8.70;;;;;;;21.09;59.38;100048.18;106071;1274;22672;-78
2022/08/27 02:43:06;;;;;;;10.30;9.00;;;;;;;21.08;59.45;100045.76;106244;1268;24252;-78
2022/08/27 02:45:36;;;;;;;12.80;9.30;;;;;;;21.06;59.58;100050.16;106406;1271;22524;-72
2022/08/27 02:48:04;;;;;;;14.80;10.40;;;;;;;21.02;59.71;100050.77;106700;1268;23965;-72
2022/08/27 02:50:31;;;;;;;10.90;9.00;;;;;;;21.02;59.72;100050.73;106530;1269;25374;-78
2022/08/27 02:53:02;;;;;;;9.80;8.80;;;;;;;20.97;59.86;100047.46;106361;1268;22690;-79
2022/08/27 02:55:29;;;;;;;17.60;9.90;;;;;;;20.91;59.99;100047.23;106350;1268;24847;-76
2022/08/27 02:57:56;;;;;;;15.50;9.20;;;;;;;20.88;60.03;100048.84;106346;1268;24393;-72
2022/08/27 03:00:24;;;;;;;12.30;9.70;;;;;;;20.86;60.11;100047.33;106275;1268;22865;-76
2022/08/27 03:02:51;;;;;;;16.90;9.50;;;;;;;20.83;60.18;100046.79;106340;1268;22525;-75
2022/08/27 03:05:21;;;;;;;13.20;10.00;;;;;;;20.76;60.27;100041.43;106033;1268;25366;-77
2022/08/27 03:07:49;;;;;;;10.20;7.80;;;;;;;20.73;60.45;100045.23;106154;1268;23200;-76
2022/08/27 03:10:19;;;;;;;11.50;8.80;;;;;;;20.72;60.58;100046.52;106373;1268;22519;-75
2022/08/27 03:12:46;;;;;;;13.20;8.80;;;;;;;20.74;60.64;100047.48;106399;1268;22703;-75
2022/08/27 03:15:16;;;;;;;13.40;8.70;;;;;;;20.74;60.76;100043.52;106301;1271;22551;-74
2022/08/27 03:20:29;;;;;;;10.50;8.40;;;;;;;20.73;60.82;100039.64;106097;1268;22553;-76
2022/08/27 03:22:56;;;;;;;16.10;9.40;;;;;;;20.70;60.72;100040.55;106405;1268;22730;-74
2022/08/27 03:25:23;;;;;;;15.90;9.70;;;;;;;20.70;60.83;100039.33;106282;1271;24220;-75
2022/08/27 03:27:50;;;;;;;16.50;9.30;;;;;;;20.69;61.04;100038.80;106480;1268;22566;-74
2022/08/27 03:30:21;;;;;;;12.90;9.50;;;;;;;20.70;61.10;100039.13;106390;1268;22535;-77
2022/08/27 03:32:49;;;;;;;13.10;9.20;;;;;;;20.68;60.99;100036.92;106436;1268;23260;-76
2022/08/27 03:35:18;;;;;;;14.70;8.90;;;;;;;20.64;61.11;100036.79;106433;1268;22560;-77
2022/08/27 03:37:45;;;;;;;12.40;10.00;;;;;;;20.62;61.17;100031.90;106288;1268;25766;-76
2022/08/27 03:40:13;;;;;;;11.80;9.60;;;;;;;20.56;61.27;100031.84;106377;1268;22538;-75
2022/08/27 03:42:42;;;;;;;11.40;9.40;;;;;;;20.50;61.32;100037.73;106448;1268;22528;-75
2022/08/27 03:45:10;;;;;;;16.40;9.90;;;;;;;20.44;61.43;100028.23;106453;1268;22532;-76
2022/08/27 03:47:37;;;;;;;11.60;9.10;;;;;;;20.48;61.72;100029.27;106329;1268;22544;-76
2022/08/27 03:50:06;;;;;;;11.10;9.90;;;;;;;20.44;61.76;100033.96;106335;1268;23227;-76
2022/08/27 03:52:34;;;;;;;14.00;10.50;;;;;;;20.41;61.84;100036.27;106271;1268;25364;-75
2022/08/27 03:55:03;;;;;;;12.60;9.40;;;;;;;20.35;61.88;100038.75;106481;1268;24388;-75
2022/08/27 03:57:31;;;;;;;12.30;9.20;;;;;;;20.34;62.06;100038.63;106441;1268;24319;-74
2022/08/27 03:59:59;;;;;;;14.30;9.00;;;;;;;20.33;62.31;100029.55;106208;1268;24263;-73
2022/08/27 04:02:27;;;;;;;12.10;9.10;;;;;;;20.39;62.26;100035.83;106312;1268;24419;-75
2022/08/27 04:04:56;;;;;;;12.10;9.30;;;;;;;20.42;62.20;100033.00;106342;1267;23196;-73
2022/08/27 04:07:23;;;;;;;18.80;9.50;;;;;;;20.45;62.23;100033.17;106391;1268;24370;-72
2022/08/27 04:09:50;;;;;;;13.60;9.10;;;;;;;20.49;62.31;100034.40;106107;1271;25448;-75
2022/08/27 04:12:17;;;;;;;10.90;9.70;;;;;;;20.50;62.17;100032.55;106102;1268;24363;-73
2022/08/27 04:14:44;;;;;;;11.10;9.70;;;;;;;20.47;62.22;100028.25;106236;1268;22665;-72
2022/08/27 04:17:11;;;;;;;12.70;9.40;;;;;;;20.48;62.36;100032.67;106233;1268;22536;-72
2022/08/27 04:19:38;;;;;;;13.00;10.10;;;;;;;20.45;62.33;100032.82;106441;1268;22862;-74
2022/08/27 04:22:06;;;;;;;11.60;10.60;;;;;;;20.42;62.38;100032.30;106238;1268;22736;-74
2022/08/27 04:24:36;;;;;;;12.10;9.10;;;;;;;20.37;62.34;100032.52;106298;1268;22547;-72
2022/08/27 04:27:05;;;;;;;12.90;9.90;;;;;;;20.35;62.47;100030.88;106533;1268;22691;-72
2022/08/27 04:29:33;;;;;;;12.60;10.10;;;;;;;20.36;62.56;100034.56;106298;1268;22790;-75
2022/08/27 04:32:00;;;;;;;12.30;9.80;;;;;;;20.37;62.77;100033.09;106359;1268;22627;-75
2022/08/27 04:34:27;;;;;;;10.20;9.10;;;;;;;20.37;62.74;100035.20;106510;1268;24069;-76
2022/08/27 04:36:56;;;;;;;11.40;9.50;;;;;;;20.38;62.70;100035.02;106585;1268;24345;-75
2022/08/27 04:39:25;;;;;;;13.10;9.90;;;;;;;20.38;62.65;100032.48;106526;1268;22544;-77
2022/08/27 04:41:54;;;;;;;11.90;9.70;;;;;;;20.40;62.72;100033.80;106521;1268;22864;-82
2022/08/27 04:44:23;;;;;;;12.00;9.30;;;;;;;20.43;62.67;100037.05;106436;1268;22522;-73
2022/08/27 04:46:54;;;;;;;13.10;9.40;;;;;;;20.44;62.70;100035.95;106562;1268;22832;-75
2022/08/27 04:49:21;;;;;;;12.10;9.40;;;;;;;20.45;62.75;100042.48;106620;1268;22517;-76
2022/08/27 04:51:48;;;;;;;11.60;9.10;;;;;;;20.45;62.74;100037.67;106415;1268;24319;-76
2022/08/27 04:54:15;;;;;;;11.20;9.30;;;;;;;20.43;62.79;100034.89;106453;1268;22544;-76
2022/08/27 04:56:42;;;;;;;11.20;9.50;;;;;;;20.43;62.78;100034.23;106448;1267;22555;-76
2022/08/27 04:59:09;;;;;;;13.10;9.80;;;;;;;20.44;62.76;100032.86;106549;1268;22729;-77
2022/08/27 05:01:38;;;;;;;11.30;9.50;;;;;;;20.43;62.82;100027.73;106425;1268;24361;-78
2022/08/27 05:04:07;;;;;;;12.80;9.80;;;;;;;20.44;62.91;100031.11;106519;1268;22736;-75
2022/08/27 05:06:35;;;;;;;11.40;9.40;;;;;;;20.43;62.83;100031.33;106304;1268;24308;-79
2022/08/27 05:09:03;;;;;;;13.60;10.20;;;;;;;20.43;63.07;100034.89;106541;1268;22528;-75
2022/08/27 05:11:33;;;;;;;12.40;9.50;;;;;;;20.44;63.11;100036.65;106328;1271;22543;-76
2022/08/27 05:14:02;;;;;;;10.50;9.60;;;;;;;20.43;63.09;100032.77;106460;1268;23929;-75
2022/08/27 05:16:30;;;;;;;10.50;9.40;;;;;;;20.46;63.20;100036.52;106407;1268;22754;-76
2022/08/27 05:18:58;;;;;;;10.90;9.20;;;;;;;20.50;63.20;100033.47;106488;1268;22552;-77
2022/08/27 05:21:30;;;;;;;10.70;9.60;;;;;;;20.55;63.01;100036.41;106043;1274;22547;-73
2022/08/27 05:23:59;;;;;;;11.80;9.20;;;;;;;20.59;63.08;100033.51;106057;1274;23625;-75
2022/08/27 05:26:27;;;;;;;10.40;9.40;;;;;;;20.62;63.06;100034.56;106118;1274;25301;-74
2022/08/27 05:28:54;;;;;;;13.00;9.70;;;;;;;20.68;63.04;100034.59;106042;1274;25404;-74
2022/08/27 05:31:21;;;;;;;16.00;10.30;;;;;;;20.71;62.94;100029.23;105858;1274;24319;-81
2022/08/27 05:33:49;;;;;;;14.40;10.00;;;;;;;20.72;62.85;100032.19;106004;1274;22538;-82
2022/08/27 05:36:20;;;;;;;10.50;9.20;;;;;;;20.75;62.82;100031.30;106226;1274;22549;-73
2022/08/27 05:38:49;;;;;;;10.90;9.50;;;;;;;20.78;62.73;100030.26;106082;1269;22532;-81
2022/08/27 05:41:19;;;;;;;11.40;9.50;;;;;;;20.82;62.76;100031.86;106190;1269;22523;-77
2022/08/27 05:43:46;;;;;;;12.10;10.50;;;;;;;20.86;62.63;100034.64;106470;1268;24222;-81
2022/08/27 05:46:19;;;;;;;13.90;10.60;;;;;;;20.87;62.59;100037.95;106544;1268;24426;-77
2022/08/27 05:48:47;;;;;;;13.70;10.10;;;;;;;20.88;62.49;100040.77;106522;1268;22543;-78
2022/08/27 05:51:17;;;;;;;11.50;9.90;;;;;;;20.90;62.47;100037.27;106480;1268;24221;-79
2022/08/27 05:53:55;;;;;;;12.50;10.00;;;;;;;20.92;62.41;100035.23;105911;1274;25366;-77
2022/08/27 05:56:24;;;;;;;15.60;10.00;;;;;;;20.94;62.39;100032.80;106012;1274;24003;-77
2022/08/27 06:01:49;;;;;;;11.60;9.60;;;;;;;21.03;62.44;100037.07;106509;1274;22528;-75
2022/08/27 06:04:19;;;;;;;18.20;10.10;;;;;;;21.06;62.38;100037.42;106356;1274;23959;-75
2022/08/27 06:06:48;;;;;;;12.30;10.00;;;;;;;21.10;62.29;100039.52;106704;1274;26485;-75
2022/08/27 06:09:18;;;;;;;11.60;9.50;;;;;;;21.16;62.18;100035.84;106911;1274;23257;-75
2022/08/27 06:11:46;;;;;;;15.40;10.50;;;;;;;21.22;62.30;100035.47;106310;1268;22554;-75
2022/08/27 06:14:13;;;;;;;12.00;9.30;;;;;;;21.33;62.27;100033.88;106633;1268;22524;-76
2022/08/27 06:16:40;;;;;;;13.10;9.80;;;;;;;21.43;61.99;100026.15;106376;1268;24278;-75
2022/08/27 06:19:10;;;;;;;11.10;9.80;;;;;;;21.52;61.73;100026.48;106408;1268;25238;-77
2022/08/27 06:21:39;;;;;;;15.20;10.00;;;;;;;21.60;61.56;100024.21;106242;1268;22535;-76
2022/08/27 06:24:07;;;;;;;12.10;10.00;;;;;;;21.69;61.44;100022.96;106276;1268;25235;-76
2022/08/27 06:26:35;;;;;;;16.00;8.90;;;;;;;21.74;61.33;100026.04;106428;1268;22555;-73
2022/08/27 06:29:06;;;;;;;13.00;10.40;;;;;;;21.78;61.41;100023.85;106334;1268;22720;-76
2022/08/27 06:31:34;;;;;;;11.00;9.70;;;;;;;21.83;61.08;100027.67;106321;1268;25406;-75
2022/08/27 06:34:05;;;;;;;12.80;10.00;;;;;;;21.89;60.86;100030.54;106304;1268;22484;-79
2022/08/27 06:36:37;;;;;;;11.60;9.70;;;;;;;21.97;60.93;100032.93;106238;1268;22528;-76
2022/08/27 06:39:05;;;;;;;10.40;9.40;;;;;;;22.03;60.85;100038.83;106428;1268;23111;-75
2022/08/27 06:41:33;;;;;;;13.60;9.60;;;;;;;22.08;60.54;100035.26;106256;1268;22683;-75
2022/08/27 06:44:03;;;;;;;12.00;9.50;;;;;;;22.14;60.51;100033.09;106328;1268;22569;-74
2022/08/27 06:46:30;;;;;;;11.20;9.90;;;;;;;22.20;60.30;100035.77;106281;1271;22634;-75
2022/08/27 06:48:59;;;;;;;10.80;9.60;;;;;;;22.27;60.37;100037.53;106107;1268;23922;-74
2022/08/27 06:51:30;;;;;;;10.80;9.60;;;;;;;22.35;60.41;100039.00;106151;1268;22563;-75
2022/08/27 06:53:59;;;;;;;16.90;10.10;;;;;;;22.42;59.88;100035.85;106296;1268;22519;-76
2022/08/27 06:56:27;;;;;;;14.70;9.40;;;;;;;22.48;59.90;100033.30;106416;1268;22553;-75
2022/08/27 06:58:56;;;;;;;11.50;9.10;;;;;;;22.53;59.58;100033.36;106355;1268;24308;-74
2022/08/27 07:01:26;;;;;;;12.20;9.20;;;;;;;22.58;59.47;100027.86;106149;1268;22526;-74
2022/08/27 07:04:01;;;;;;;14.00;9.80;;;;;;;22.64;59.47;100033.03;106239;1268;22538;-75
2022/08/27 07:06:30;;;;;;;18.30;9.90;;;;;;;22.68;59.18;100034.75;106499;1268;22544;-74
2022/08/27 07:08:58;;;;;;;15.10;10.30;;;;;;;22.72;58.86;100031.92;106167;1268;22591;-74
2022/08/27 07:11:27;;;;;;;12.60;9.40;;;;;;;22.79;59.03;100032.42;106370;1268;22548;-75
2022/08/27 07:13:55;;;;;;;16.00;9.00;;;;;;;22.84;58.86;100030.99;106205;1268;25394;-74
2022/08/27 07:16:24;;;;;;;11.30;9.50;;;;;;;22.91;59.19;100026.06;106249;1268;24562;-77
2022/08/27 07:18:53;;;;;;;11.10;8.90;;;;;;;22.98;58.70;100022.88;106402;1268;23929;-75
2022/08/27 07:21:22;;;;;;;11.20;9.20;;;;;;;23.06;58.47;100023.47;106399;1268;24201;-76
2022/08/27 07:23:51;;;;;;;12.60;8.50;;;;;;;23.12;58.33;100023.73;106487;1268;25309;-79
2022/08/27 07:26:19;;;;;;;11.70;10.40;;;;;;;23.19;58.31;100026.36;106490;1268;22531;-78
2022/08/27 07:28:47;;;;;;;14.40;12.20;;;;;;;23.25;58.04;100021.29;106453;1268;24332;-72
2022/08/27 07:31:18;;;;;;;15.80;11.60;;;;;;;23.32;57.86;100021.33;106816;1268;22548;-74
2022/08/27 07:33:46;;;;;;;16.00;9.00;;;;;;;23.40;57.64;100018.66;106793;1268;22538;-72
2022/08/27 07:36:20;;;;;;;14.70;9.10;;;;;;;23.48;57.29;100017.75;106715;1268;22541;-76
2022/08/27 07:38:51;;;;;;;17.50;9.50;;;;;;;23.56;57.00;100017.22;106477;1268;22730;-81
2022/08/27 07:41:29;;;;;;;15.30;9.00;;;;;;;23.67;57.04;100018.27;106110;1268;25321;-76
2022/08/27 07:46:46;;;;;;;16.70;9.00;;;;;;;23.86;56.32;100022.89;106732;1268;22548;-74
2022/08/27 07:49:16;;;;;;;15.60;9.60;;;;;;;23.93;56.15;100020.94;106311;1268;22736;-76
2022/08/27 07:51:43;;;;;;;17.40;8.80;;;;;;;24.01;55.94;100022.52;106414;1266;25238;-76
2022/08/27 07:54:11;;;;;;;12.00;8.80;;;;;;;24.11;56.29;100018.05;106399;1268;23083;-75
2022/08/27 07:56:37;;;;;;;11.10;8.50;;;;;;;24.23;56.09;100014.01;106417;1268;22534;-78
2022/08/27 07:59:04;;;;;;;13.20;8.30;;;;;;;24.35;55.81;100013.13;106370;1268;25358;-77
2022/08/27 08:01:31;;;;;;;12.50;8.30;;;;;;;24.44;55.45;100009.58;106515;1268;22555;-77
2022/08/27 08:03:58;;;;;;;14.20;8.50;;;;;;;24.52;55.39;100010.43;106439;1268;24295;-78
2022/08/27 08:06:25;;;;;;;13.10;8.20;;;;;;;24.60;55.16;100008.73;106449;1268;24057;-77
2022/08/27 08:08:52;;;;;;;8.30;7.30;;;;;;;24.71;54.58;100007.57;106400;1268;24419;-76
2022/08/27 08:11:19;;;;;;;13.40;7.90;;;;;;;24.83;54.66;100009.05;106431;1268;25317;-74
2022/08/27 08:13:47;;;;;;;13.80;8.40;;;;;;;24.97;54.10;100011.83;106380;1268;24252;-73
2022/08/27 08:16:14;;;;;;;9.70;7.90;;;;;;;25.12;53.84;100011.80;106571;1268;22535;-75
2022/08/27 08:18:41;;;;;;;10.60;7.50;;;;;;;25.26;53.70;100013.79;106403;1268;24220;-80
2022/08/27 08:21:12;;;;;;;12.20;8.10;;;;;;;25.41;53.22;100012.11;106396;1268;24369;-76
2022/08/27 08:23:40;;;;;;;10.60;7.40;;;;;;;25.53;52.93;100006.63;106386;1267;22762;-77
2022/08/27 08:26:08;;;;;;;13.40;7.20;;;;;;;25.66;52.77;100008.73;106393;1268;25283;-79
2022/08/27 08:28:35;;;;;;;15.70;8.30;;;;;;;25.80;52.37;100012.68;106461;1268;25223;-76
2022/08/27 08:31:04;;;;;;;10.40;7.80;;;;;;;25.95;52.15;100008.65;106502;1268;22528;-78
2022/08/27 08:33:31;;;;;;;11.20;7.80;;;;;;;26.12;51.85;100005.52;106531;1268;22667;-74
2022/08/27 08:36:05;;;;;;;8.90;6.90;;;;;;;26.27;51.30;100007.48;106390;1268;22757;-79
2022/08/27 08:38:33;;;;;;;11.50;8.10;;;;;;;26.45;51.25;100006.46;106507;1268;23954;-77
2022/08/27 08:41:00;;;;;;;7.60;6.70;;;;;;;26.62;50.63;100007.94;106473;1268;22850;-76
2022/08/27 08:43:42;;;;;;;11.00;6.40;;;;;;;26.79;49.87;100011.23;106344;1271;22590;-76
2022/08/27 08:46:36;;;;;;;11.00;6.90;;;;;;;26.98;49.13;100010.05;106483;1268;22554;-80
2022/08/27 08:49:38;;;;;;;12.50;7.20;;;;;;;27.14;48.43;100008.91;106351;1268;22844;-76
2022/08/27 08:52:36;;;;;;;10.50;6.50;;;;;;;27.33;47.87;100010.05;106322;1268;22581;-76
2022/08/27 08:55:22;;;;;;;11.00;7.20;;;;;;;27.52;47.22;100007.27;106171;1268;23949;-77
2022/08/27 08:58:20;;;;;;;8.00;6.60;;;;;;;27.69;46.87;100011.11;106394;1268;22544;-77
2022/08/27 09:00:53;;;;;;;10.70;7.20;;;;;;;27.87;46.19;100007.56;106388;1268;25245;-76
2022/08/27 09:03:20;;;;;;;8.00;6.40;;;;;;;28.04;45.98;100003.93;106396;1268;24255;-75
2022/08/27 09:06:02;;;;;;;12.10;7.60;;;;;;;28.16;45.64;100004.86;106217;1268;22521;-75
2022/08/27 09:08:32;;;;;;;9.50;7.00;;;;;;;28.30;45.07;99997.66;106391;1268;22519;-74
2022/08/27 09:11:34;;;;;;;11.10;7.00;;;;;;;28.48;45.10;100004.93;106330;1268;25352;-75
2022/08/27 09:14:18;;;;;;;11.10;7.00;;;;;;;28.63;44.57;100004.23;105315;1268;1359198;-75
2022/08/27 09:17:01;;;;;;;8.20;7.10;;;;;;;28.78;44.08;100005.98;106358;1268;22607;-76
2022/08/27 09:19:36;;;;;;;11.10;6.90;;;;;;;28.93;43.75;100002.96;106362;1268;22562;-74
2022/08/27 09:22:48;;;;;;;7.20;6.40;;;;;;;29.09;43.16;100000.66;106343;1268;24391;-76
2022/08/27 09:25:23;;;;;;;11.20;7.00;;;;;;;29.25;42.69;99997.52;106337;1268;23381;-83
2022/08/27 09:27:55;;;;;;;9.10;6.90;;;;;;;29.38;41.95;99997.70;106296;1268;22725;-74
2022/08/27 09:30:30;;;;;;;16.50;6.90;;;;;;;29.44;41.60;99999.92;106341;1268;23996;-74
2022/08/27 09:33:03;;;;;;;10.00;6.90;;;;;;;29.57;41.26;99995.92;106385;1268;24896;-74
2022/08/27 09:35:41;;;;;;;13.20;7.00;;;;;;;29.76;41.05;99996.20;106349;1268;22529;-75
2022/08/27 09:38:08;;;;;;;11.70;7.00;;;;;;;29.92;40.70;99993.38;106368;1268;23300;-74
2022/08/27 09:40:47;;;;;;;10.80;6.80;;;;;;;30.07;40.43;99994.02;106525;1268;25194;-75
2022/08/27 09:43:14;;;;;;;11.60;7.30;;;;;;;30.27;40.12;99995.46;106521;1268;25509;-75
2022/08/27 09:45:54;;;;;;;8.90;7.10;;;;;;;30.42;39.49;99992.65;106357;1268;25295;-75
2022/08/27 09:48:32;;;;;;;12.90;7.20;;;;;;;30.62;39.29;99995.22;106358;1268;22678;-76
2022/08/27 09:51:08;;;;;;;9.60;7.40;;;;;;;30.77;38.67;99990.16;106473;1268;22541;-75
2022/08/27 09:53:57;;;;;;;11.20;7.30;;;;;;;30.88;38.14;99989.36;106493;1268;25247;-77
2022/08/27 09:56:35;;;;;;;9.70;8.00;;;;;;;31.03;37.82;99993.19;106615;1268;24217;-77
2022/08/27 09:59:08;;;;;;;13.00;8.10;;;;;;;31.17;37.57;99996.46;106525;1268;22660;-76
2022/08/27 10:01:52;;;;;;;11.20;7.10;;;;;;;31.30;37.13;99989.16;106733;1267;22634;-77
2022/08/27 10:04:36;;;;;;;10.10;7.10;;;;;;;31.47;36.44;99990.86;106967;1268;22976;-76
2022/08/27 10:07:25;;;;;;;13.20;7.30;;;;;;;31.64;36.04;99988.37;106424;1268;26479;-76
2022/08/27 10:10:02;;;;;;;11.20;6.80;;;;;;;31.78;35.77;99985.80;106453;1269;22471;-77
2022/08/27 10:12:55;;;;;;;10.00;7.20;;;;;;;31.94;35.52;99985.08;106371;1268;25330;-77
2022/08/27 10:15:25;;;;;;;9.60;6.90;;;;;;;32.11;35.50;99982.73;106251;1268;22861;-75
2022/08/27 10:17:51;;;;;;;8.00;7.30;;;;;;;32.31;35.29;99979.55;106368;1268;23771;-75
2022/08/27 10:20:27;;;;;;;11.00;7.20;;;;;;;32.48;34.93;99974.09;106324;1267;22531;-77
2022/08/27 10:22:59;;;;;;;8.40;6.30;;;;;;;32.73;34.34;99976.86;106357;1268;25352;-76
2022/08/27 10:26:07;;;;;;;10.70;6.90;;;;;;;32.87;34.18;99974.64;106340;1268;25352;-76
2022/08/27 10:28:49;;;;;;;10.10;7.10;;;;;;;33.01;33.55;99970.94;106368;1268;25298;-76
2022/08/27 10:31:54;;;;;;;13.00;7.10;;;;;;;33.08;33.12;99973.84;106395;1268;25247;-74
2022/08/27 10:34:37;;;;;;;8.00;6.20;;;;;;;33.07;33.05;99970.06;105888;1277;22537;-76
2022/08/27 10:37:38;;;;;;;7.80;7.00;;;;;;;33.12;33.02;99970.31;105656;1277;22538;-75
2022/08/27 10:40:19;;;;;;;11.30;7.20;;;;;;;33.27;33.40;99968.27;105967;1277;25673;-76
2022/08/27 10:42:55;;;;;;;9.60;7.10;;;;;;;33.44;33.16;99969.45;105725;1277;25248;-77
2022/08/27 10:45:42;;;;;;;10.90;6.70;;;;;;;33.57;32.98;99971.05;105963;1277;24421;-75
2022/08/27 10:48:27;;;;;;;12.60;7.40;;;;;;;33.71;32.46;99962.19;105590;1277;22716;-75
2022/08/27 10:51:18;;;;;;;13.20;7.50;;;;;;;33.83;32.11;99961.59;106062;1277;25485;-77
2022/08/27 10:54:02;;;;;;;12.00;7.40;;;;;;;33.91;31.68;99957.27;105939;1275;22549;-73
2022/08/27 10:56:42;;;;;;;9.90;7.20;;;;;;;33.93;31.46;99962.13;105744;1277;22522;-76
2022/08/27 10:59:31;;;;;;;10.80;7.50;;;;;;;34.02;31.35;99955.98;105922;1277;22540;-74
2022/08/27 11:02:13;;;;;;;8.40;6.90;;;;;;;34.15;31.24;99954.25;105773;1277;22553;-79
2022/08/27 11:04:56;;;;;;;9.00;7.80;;;;;;;34.21;31.06;99949.54;106008;1271;22555;-77
2022/08/27 11:07:35;;;;;;;15.00;6.90;;;;;;;34.38;30.46;99950.77;106030;1271;25363;-83
2022/08/27 11:10:09;;;;;;;8.00;6.70;;;;;;;34.51;30.46;99947.71;106108;1271;25270;-78
2022/08/27 11:12:41;;;;;;;12.60;6.40;;;;;;;34.61;30.21;99951.35;106178;1271;23960;-78
2022/08/27 11:15:20;;;;;;;9.30;6.80;;;;;;;34.48;29.46;99951.62;106270;1271;26547;-78
2022/08/27 11:18:02;;;;;;;8.70;7.00;;;;;;;34.48;29.52;99950.58;106348;1270;24261;-78
2022/08/27 11:20:48;;;;;;;11.40;6.60;;;;;;;34.62;29.08;99951.92;106471;1271;25531;-77
2022/08/27 11:23:45;;;;;;;10.70;6.80;;;;;;;34.74;28.50;99950.08;106339;1271;23416;-78
2022/08/27 11:26:13;;;;;;;10.90;5.80;;;;;;;34.87;27.80;99947.90;106248;1271;25366;-75
2022/08/27 11:28:50;;;;;;;7.80;6.30;;;;;;;35.00;27.55;99943.08;106078;1271;24233;-76
2022/08/27 11:31:39;;;;;;;13.30;6.60;;;;;;;35.20;27.35;99948.97;106368;1271;25238;-74
2022/08/27 11:34:31;;;;;;;12.20;6.40;;;;;;;35.30;26.94;99948.64;106351;1271;25247;-77
2022/08/27 11:37:23;;;;;;;8.50;6.10;;;;;;;35.37;26.67;99941.23;106305;1271;22525;-75
2022/08/27 11:40:23;;;;;;;6.50;5.90;;;;;;;35.48;26.15;99946.98;106251;1271;24249;-74
2022/08/27 11:42:55;;;;;;;7.70;5.70;;;;;;;35.67;25.72;99948.91;106320;1271;22550;-76